Terminal Aerodrome Forecast
Issued by NWS

Home | Current Version | Previous Version | Text Only | Print | Product List | Glossary On
Versions: 1 2 3 4 5 6 7 8 9 10 11 12 13 14
724
FTUS45 KTFX 131139
TAFHVR
TAF
KHVR 131139Z 1312/1412 22011KT P6SM BKN120
     FM131900 29016KT P6SM SCT070 BKN100
     FM140100 26010KT P6SM SCT200=

USA.gov is the U.S. government's official web portal to all federal, state and local government web resources and services.